Latest Weather Observations for Cooma Airport

IDN60801

Issued at 7:02 pm EDT Tuesday 6 December 2016 (issued every 30 minutes, with the page automatically refreshed every 10 minutes)

About weather observations | Map of weather stations | Latest weather observations for NSW | Other Formats
Station Details ID: 070217 Name: COOMA AIRPORT AWS Lat: -36.29 Lon: 148.97 Height: 930.0 m
Data from the previous 72 hours. | See also: Recent months at Cooma Airport
Date/Time
EDT
Temp
°C
App
Temp
°C
Dew
Point
°C
Rel
Hum
%
Delta-T
°C
Wind Press
QNH
hPa
Press
MSL
hPa
Rain since
9am
mm
Dir  Spd
km/h
Gust
km/h
Spd
kts
Gust
kts
06/07:00pm 17.6 13.9 6.5 48 5.8 W 15 20 8 11 1012.8 1009.4 0.0
06/06:30pm 18.3 13.6 5.2 42 6.7 W 19 28 10 15 1012.4 1009.0 0.0
06/06:00pm 19.3 17.1 9.2 52 5.6 SW 11 13 6 7 1012.4 1009.0 0.0
06/05:30pm 19.6 16.0 6.7 43 6.8 WSW 15 24 8 13 1012.1 1008.7 0.0
06/05:00pm 19.7 16.4 8.1 47 6.3 WNW 15 20 8 11 1011.7 1008.3 0.0
06/04:30pm 19.7 16.0 8.1 47 6.3 W 17 22 9 12 1011.8 1008.4 0.0
06/04:00pm 20.0 17.4 7.7 45 6.6 WNW 11 20 6 11 1012.1 1008.7 0.0
06/03:30pm 20.1 18.4 7.5 44 6.8 NW 6 11 3 6 1011.6 1008.2 0.0
06/03:00pm 19.9 16.0 7.3 44 6.7 WNW 17 20 9 11 1012.4 1009.0 0.0
06/02:30pm 20.4 18.2 7.7 44 6.9 NW 9 20 5 11 1012.2 1008.8 0.0
06/02:00pm 20.3 17.4 8.3 46 6.6 NW 13 20 7 11 1012.2 1008.8 0.0
06/01:30pm 20.3 16.2 7.7 44 6.8 WNW 19 26 10 14 1012.4 1009.0 0.0
06/01:00pm 20.2 16.6 9.7 51 5.9 WNW 19 28 10 15 1012.7 1009.3 0.0
06/12:30pm 19.7 17.5 12.2 62 4.4 WNW 15 20 8 11 1013.0 1009.7 0.0
06/12:00pm 19.3 16.3 12.1 63 4.2 W 19 28 10 15 1013.3 1009.9 0.0
06/11:30am 19.3 16.2 12.3 64 4.1 WNW 20 30 11 16 1013.6 1010.2 0.0
06/11:00am 19.7 17.9 13.2 66 3.9 WNW 15 20 8 11 1013.9 1010.5 0.0
06/10:30am 18.7 16.5 14.4 76 2.6 WNW 19 28 10 15 1014.4 1011.0 0.0
06/10:00am 17.3 18.0 17.1 99 0.1 NNE 9 11 5 6 1013.9 1010.5 0.0
06/09:30am 16.4 15.3 16.4 100 0.0 NNE 17 20 9 11 1014.2 1010.9 0.0
06/09:28am 16.1 14.9 16.1 100 0.0 NNE 17 20 9 11 1014.1 1010.8 0.0
06/09:00am 15.9 15.0 15.9 100 0.0 NNE 15 17 8 9 1014.1 1010.8 19.4
06/08:44am 16.0 15.5 16.0 100 0.0 NE 13 17 7 9 1014.0 1010.7 19.4
06/08:39am 15.8 14.9 15.8 100 0.0 NE 15 19 8 10 1014.0 1010.7 19.4
06/08:30am 15.7 15.1 15.7 100 0.0 NE 13 17 7 9 1013.9 1010.5 19.4
06/08:04am 15.6 13.8 15.6 100 0.0 NNE 19 24 10 13 1013.2 1009.8 19.4
06/08:00am 15.5 13.7 15.5 100 0.0 NE 19 24 10 13 1013.2 1009.8 19.4
06/07:38am 15.5 13.5 15.5 100 0.0 NNE 20 26 11 14 1012.7 1009.3 19.4
06/07:30am 15.4 13.4 15.4 100 0.0 NNE 20 26 11 14 1012.8 1009.4 19.4
06/07:00am 15.3 13.2 15.3 100 0.0 NE 20 24 11 13 1012.8 1009.4 19.4
06/06:34am 15.3 13.8 15.3 100 0.0 NE 17 20 9 11 1013.0 1009.7 19.4
06/06:30am 15.2 13.7 15.2 100 0.0 NE 17 20 9 11 1012.9 1009.5 19.4
06/06:00am 15.1 13.2 15.1 100 0.0 NNE 19 20 10 11 1013.0 1009.7 19.2
06/05:30am 15.1 13.2 15.1 100 0.0 NNE 19 24 10 13 1013.0 1009.7 18.6
06/05:00am 15.1 13.5 15.1 100 0.0 NE 17 20 9 11 1013.3 1009.9 18.0
06/04:30am 15.2 13.1 15.2 100 0.0 NE 20 24 11 13 1012.9 1009.5 17.8
06/04:00am 15.4 13.4 15.4 100 0.0 NE 20 24 11 13 1013.4 1010.0 17.4
06/03:46am 15.6 14.6 15.6 100 0.0 NE 15 17 8 9 1013.4 1010.0 17.0
06/03:30am 15.6 15.0 15.6 100 0.0 NNE 13 19 7 10 1013.6 1010.2 16.8
06/03:00am 15.6 14.2 15.6 100 0.0 NNE 17 22 9 12 1013.4 1010.0 16.2
06/02:30am 15.4 13.4 15.4 100 0.0 NNE 20 24 11 13 1013.2 1009.8 16.2
06/02:00am 15.5 13.1 15.5 100 0.0 NE 22 26 12 14 1013.3 1009.9 16.2
06/01:38am 15.6 13.6 15.6 100 0.0 NE 20 26 11 14 1013.9 1010.5 16.0
06/01:30am 15.5 13.1 15.5 100 0.0 NE 22 28 12 15 1014.4 1011.0 16.0
06/01:00am 15.7 13.8 15.7 100 0.0 ENE 20 26 11 14 1015.1 1011.8 15.4
06/12:39am 15.9 15.4 15.9 100 0.0 ENE 13 19 7 10 1015.8 1012.4 14.6
06/12:30am 16.0 15.5 16.0 100 0.0 ENE 13 17 7 9 1016.0 1012.7 14.2
06/12:03am 16.4 16.8 16.4 100 0.0 NE 9 19 5 10 1015.8 1012.4 12.0
06/12:00am 16.4 17.2 16.4 100 0.0 NE 7 11 4 6 1015.8 1012.4 12.0
 
Date/Time
EDT
Temp
°C
App
Temp
°C
Dew
Point
°C
Rel
Hum
%
Delta-T
°C
Wind Press
QNH
hPa
Press
MSL
hPa
Rain since
9am
mm
Dir  Spd
km/h
Gust
km/h
Spd
kts
Gust
kts
05/11:32pm 16.1 14.3 16.1 100 0.0 NE 20 28 11 15 1014.9 1011.6 6.2
05/11:30pm 16.1 14.0 16.1 100 0.0 NE 22 28 12 15 1014.8 1011.4 6.0
05/11:22pm 16.4 14.0 16.4 100 0.0 NE 24 30 13 16 1014.7 1011.3 5.8
05/11:00pm 16.6 15.6 16.6 100 0.0 NE 17 20 9 11 1014.8 1011.4 5.2
05/10:30pm 16.4 15.3 16.4 100 0.0 NE 17 22 9 12 1014.6 1011.2 5.2
05/10:00pm 16.0 15.5 16.0 100 0.0 NNE 13 15 7 8 1014.8 1011.4 5.2
05/09:30pm 16.6 16.3 16.4 99 0.1 NE 13 17 7 9 1014.7 1011.3 5.2
05/09:00pm 16.8 16.6 16.6 99 0.1 NE 13 15 7 8 1014.6 1011.2 5.2
05/08:30pm 17.0 17.6 16.8 99 0.1 ENE 9 15 5 8 1014.5 1011.1 5.2
05/08:00pm 16.7 17.2 16.5 99 0.1 N 9 13 5 7 1014.5 1011.1 5.2
05/07:33pm 17.1 16.7 17.1 100 0.0 NE 15 19 8 10 1014.4 1011.0 5.2
05/07:30pm 17.0 16.9 17.0 100 0.0 NE 13 17 7 9 1014.4 1011.0 5.2
05/07:00pm 17.1 18.1 16.8 98 0.2 SW 7 13 4 7 1014.4 1011.0 3.6
05/06:49pm 17.1 15.7 16.6 97 0.3 SW 19 26 10 14 1014.8 1011.4 2.2
05/06:30pm 17.3 15.6 16.3 94 0.6 S 20 28 11 15 1013.7 1010.3 1.4
05/06:00pm 18.6 14.8 15.7 83 1.8 S 30 39 16 21 1013.4 1010.0 0.2
05/05:52pm 20.5 16.9 14.2 67 3.8 SSW 26 39 14 21 1013.2 1009.8 0.0
05/05:30pm 24.8 22.8 12.7 47 7.3 WNW 15 20 8 11 1012.3 1008.9 0.0
05/05:00pm 25.6 22.9 12.8 45 7.7 NW 19 30 10 16 1011.8 1008.4 0.0
05/04:30pm 27.4 24.3 13.4 42 8.6 NW 22 37 12 20 1011.4 1008.0 0.0
05/04:00pm 27.5 24.5 12.7 40 9.0 WNW 20 33 11 18 1011.5 1008.1 0.0
05/03:30pm 26.7 24.5 14.5 47 7.6 WNW 19 26 10 14 1012.0 1008.5 0.0
05/03:00pm 25.6 22.6 12.4 43 7.9 WNW 20 28 11 15 1012.4 1009.0 0.0
05/02:30pm 25.8 22.9 12.3 43 8.1 W 19 33 10 18 1012.5 1009.1 0.0
05/02:00pm 25.6 23.0 13.1 46 7.6 WNW 19 28 10 15 1012.5 1009.1 0.0
05/01:30pm 25.3 22.7 13.2 47 7.3 WNW 19 28 10 15 1012.4 1009.0 0.0
05/01:00pm 25.5 23.2 13.0 46 7.6 W 17 26 9 14 1012.5 1009.1 0.0
05/12:30pm 24.9 22.8 12.5 46 7.4 WSW 15 22 8 12 1012.5 1009.1 0.0
05/12:00pm 24.8 22.9 13.0 47 7.1 SW 15 26 8 14 1012.4 1009.0 0.0
05/11:30am 24.2 20.3 12.2 47 7.1 WNW 24 33 13 18 1012.1 1008.7 0.0
05/11:00am 24.3 20.7 11.9 45 7.4 WNW 22 35 12 19 1012.1 1008.7 0.0
05/10:30am 24.6 22.3 11.9 45 7.5 NW 15 24 8 13 1012.5 1009.1 0.0
05/10:00am 24.6 22.7 12.9 48 7.1 NW 15 22 8 12 1012.5 1009.1 0.0
05/09:30am 23.6 20.5 12.3 49 6.7 WNW 20 30 11 16 1012.6 1009.2 0.0
05/09:00am 22.4 19.0 12.6 54 5.8 WNW 22 32 12 17 1012.9 1009.5 0.2
05/08:30am 20.2 20.2 13.6 66 4.0 NE 6 9 3 5 1012.7 1009.3 0.2
05/08:00am 20.0 19.0 13.5 66 3.9 E 11 15 6 8 1012.5 1009.1 0.2
05/07:30am 19.3 19.7 13.7 70 3.3 NNE 4 15 2 8 1012.1 1008.7 0.2
05/07:00am 18.0 16.8 14.1 78 2.3 NNE 13 19 7 10 1011.7 1008.3 0.2
05/06:30am 17.5 16.3 14.0 80 2.1 NNE 13 17 7 9 1011.8 1008.4 0.2
05/06:00am 17.0 16.5 13.9 82 1.8 NE 9 13 5 7 1011.7 1008.3 0.2
05/05:30am 18.0 18.0 14.1 78 2.3 NW 7 13 4 7 1012.2 1008.8 0.2
05/05:00am 16.5 16.2 14.5 88 1.2 N 9 11 5 6 1012.1 1008.7 0.2
05/04:30am 16.2 17.5 14.2 88 1.2 CALM 0 0 0 0 1012.3 1008.9 0.2
05/04:00am 16.5 16.6 14.5 88 1.2 NE 7 11 4 6 1012.6 1009.2 0.2
05/03:30am 17.0 16.6 14.1 83 1.7 NNE 9 13 5 7 1012.8 1009.4 0.2
05/03:00am 17.6 17.2 13.1 75 2.6 N 7 11 4 6 1013.4 1010.0 0.0
05/02:30am 17.2 16.9 13.3 78 2.3 NNW 7 9 4 5 1012.9 1009.5 0.0
05/02:00am 17.2 18.0 13.7 80 2.1 NW 2 7 1 4 1012.6 1009.2 0.0
05/01:30am 17.3 17.2 13.4 78 2.3 NE 6 11 3 6 1012.9 1009.5 0.0
05/01:00am 18.1 18.1 12.5 70 3.3 NNW 4 7 2 4 1013.4 1010.0 0.0
05/12:30am 18.2 17.2 12.4 69 3.4 NE 9 9 5 5 1013.6 1010.2 0.0
05/12:00am 18.6 17.3 12.6 68 3.5 NE 11 15 6 8 1013.9 1010.5 0.0
 
Date/Time
EDT
Temp
°C
App
Temp
°C
Dew
Point
°C
Rel
Hum
%
Delta-T
°C
Wind Press
QNH
hPa
Press
MSL
hPa
Rain since
9am
mm
Dir  Spd
km/h
Gust
km/h
Spd
kts
Gust
kts
04/11:30pm 19.4 18.1 11.2 59 4.7 NE 9 13 5 7 1013.7 1010.3 0.0
04/11:00pm 20.0 18.6 11.0 56 5.1 N 9 13 5 7 1013.9 1010.5 0.0
04/10:30pm 20.4 19.3 10.5 53 5.6 NNW 7 9 4 5 1014.1 1010.8 0.0
04/10:00pm 21.2 18.5 10.4 50 6.1 NNW 15 20 8 11 1014.4 1011.0 0.0
04/09:30pm 21.5 19.1 10.0 48 6.5 NNW 13 20 7 11 1014.2 1010.9 0.0
04/09:00pm 22.4 19.9 9.6 44 7.2 WNW 13 20 7 11 1015.0 1011.7 0.0
04/08:30pm 22.8 20.5 10.6 46 7.0 NNW 13 24 7 13 1014.8 1011.4 0.0
04/08:00pm 22.1 19.2 9.6 45 7.0 N 15 20 8 11 1014.2 1010.9 0.0
04/07:30pm 24.4 20.8 8.4 36 8.9 NNW 17 24 9 13 1013.9 1010.5 0.0
04/07:00pm 24.2 22.5 9.8 40 8.2 NNW 9 22 5 12 1013.7 1010.3 0.0
04/06:30pm 23.6 21.6 8.5 38 8.4 N 9 13 5 7 1013.8 1010.4 0.0
04/06:00pm 24.6 21.7 8.1 35 9.2 NNW 13 19 7 10 1013.9 1010.5 0.0
04/05:30pm 25.0 21.2 8.9 36 9.1 NW 19 28 10 15 1013.9 1010.5 0.0
04/05:00pm 25.2 21.8 9.1 36 9.1 WNW 17 24 9 13 1013.9 1010.5 0.0
04/04:30pm 25.8 21.1 7.9 32 10.0 WNW 22 35 12 19 1014.4 1011.0 0.0
04/04:00pm 26.9 23.8 7.4 29 10.8 NW 13 19 7 10 1014.6 1011.2 0.0
04/03:30pm 27.8 23.8 6.6 26 11.7 WNW 17 24 9 13 1014.4 1011.0 0.0
04/03:00pm 28.2 24.3 6.9 26 11.8 WSW 17 24 9 13 1014.5 1011.1 0.0
04/02:30pm 29.0 24.4 6.4 24 12.5 SW 20 30 11 16 1014.6 1011.2 0.0
04/02:00pm 28.0 22.8 7.3 27 11.6 WSW 24 33 13 18 1014.8 1011.4 0.0
04/01:30pm 28.1 21.1 6.2 25 12.0 WSW 32 44 17 24 1015.1 1011.8 0.0
04/01:00pm 27.7 22.3 6.5 26 11.7 WSW 24 33 13 18 1015.3 1012.0 0.0
04/12:30pm 28.6 24.9 6.1 24 12.3 WNW 15 35 8 19 1015.3 1012.0 0.0
04/12:00pm 27.5 24.0 7.4 28 11.2 SE 15 20 8 11 1015.9 1012.6 0.0
04/11:30am 26.0 24.1 8.9 34 9.7 E 9 15 5 8 1016.3 1013.0 0.0
04/11:00am 24.4 22.0 8.8 37 8.8 NE 11 19 6 10 1016.8 1013.4 0.0
04/10:30am 22.6 19.3 9.4 43 7.4 NE 17 24 9 13 1017.2 1013.9 0.0
04/10:00am 20.8 18.0 11.4 55 5.4 NE 17 20 9 11 1017.6 1014.3 0.0
04/09:30am 18.6 15.9 11.7 64 4.0 NE 17 22 9 12 1017.9 1014.6 0.0
04/09:00am 16.3 13.2 11.5 73 2.7 NE 19 24 10 13 1017.9 1014.6 0.0
04/08:30am 14.1 10.8 11.6 85 1.4 NE 20 24 11 13 1017.9 1014.6 0.0
04/08:01am 11.3 8.8 11.1 99 0.1 NE 15 19 8 10 1018.2 1014.9 0.0
04/08:00am 11.0 8.4 10.7 98 0.2 NE 15 19 8 10 1018.3 1015.0 0.0
04/07:53am 11.0 8.5 11.0 100 0.0 NE 15 19 8 10 1018.3 1015.0 0.0
04/07:30am 10.1 6.4 10.1 100 0.0 NE 20 22 11 12 1018.0 1014.7 0.0
04/07:00am 9.8 6.6 9.8 100 0.0 NNE 17 20 9 11 1017.9 1014.6 0.0
04/06:30am 9.9 6.7 9.9 100 0.0 NNE 17 20 9 11 1017.8 1014.4 0.0
04/06:00am 9.9 6.7 9.9 100 0.0 NNE 17 20 9 11 1017.3 1014.0 0.0
04/05:30am 10.3 7.6 10.3 100 0.0 NE 15 19 8 10 1017.0 1013.7 0.0
04/05:00am 10.2 7.1 10.2 100 0.0 NE 17 19 9 10 1016.9 1013.6 0.0
04/04:30am 10.6 8.0 10.6 100 0.0 NNE 15 19 8 10 1017.0 1013.7 0.0
04/04:00am 10.2 7.5 10.2 100 0.0 NE 15 17 8 9 1017.0 1013.7 0.0
04/03:30am 10.2 7.8 10.2 100 0.0 NE 13 17 7 9 1017.0 1013.7 0.0
04/03:00am 9.1 7.6 9.1 100 0.0 NNE 7 9 4 5 1017.1 1013.8 0.0
04/02:30am 9.0 8.8 9.0 100 0.0 CALM 0 0 0 0 1017.4 1014.1 0.0
04/02:00am 8.6 7.9 8.6 100 0.0 NNW 2 6 1 3 1017.5 1014.2 0.0
04/01:30am 6.8 6.0 6.7 99 0.0 CALM 0 0 0 0 1017.8 1014.4 0.0
04/01:01am 6.5 5.7 6.4 99 0.0 CALM 0 0 0 0 1018.0 1014.7 0.0
04/01:00am 6.4 5.6 6.3 99 0.0 CALM 0 0 0 0 1018.0 1014.7 0.0
04/12:53am 6.6 5.8 6.5 99 0.0 CALM 0 0 0 0 1018.1 1014.8 0.0
04/12:30am 6.1 4.5 4.7 91 0.6 NW 2 6 1 3 1018.2 1014.9 0.0
04/12:00am 7.7 6.9 6.6 93 0.5 CALM 0 0 0 0 1018.2 1014.9 0.0
 
Date/Time
EDT
Temp
°C
App
Temp
°C
Dew
Point
°C
Rel
Hum
%
Delta-T
°C
Wind Press
QNH
hPa
Press
MSL
hPa
Rain since
9am
mm
Dir  Spd
km/h
Gust
km/h
Spd
kts
Gust
kts
03/11:30pm 8.8 8.2 7.3 90 0.7 CALM 0 0 0 0 1018.2 1014.9 0.0
03/11:00pm 10.2 10.3 10.1 99 0.1 CALM 0 0 0 0 1018.3 1015.0 0.0
03/10:30pm 10.6 8.6 10.1 97 0.3 N 11 13 6 7 1018.0 1014.7 0.0
03/10:00pm 11.4 9.1 10.3 93 0.6 N 13 15 7 8 1018.0 1014.7 0.0
03/09:30pm 11.9 10.0 10.5 91 0.8 NNE 11 13 6 7 1017.6 1014.3 0.0
03/09:00pm 14.2 12.1 11.2 82 1.7 NE 13 17 7 9 1017.4 1014.1 0.0
03/08:30pm 15.9 13.6 9.1 64 3.7 ENE 11 15 6 8 1016.8 1013.4 0.0
03/08:00pm 20.1 15.4 -1.7 23 9.8 WNW 13 19 7 10 1016.1 1012.8 0.0
03/07:30pm 22.3 17.4 -0.4 22 10.7 W 15 20 8 11 1015.9 1012.6 0.0

Other Formats:

Comma delimited format used in spreadsheet applications
http://www.bom.gov.au/fwo/IDN60801/IDN60801.94921.axf

JavaScript Object Notation format (JSON) in row-major order
http://www.bom.gov.au/fwo/IDN60801/IDN60801.94921.json